sensor_id;sensor_type;location;lat;lon;timestamp;P1;durP1;ratioP1;P2;durP2;ratioP2
56997;SDS011;42890;44.244;22.530;2024-01-15T00:01:10;131.35;;;57.15;;
56997;SDS011;42890;44.244;22.530;2024-01-15T00:03:40;37.35;;;29.55;;
56997;SDS011;42890;44.244;22.530;2024-01-15T00:06:06;51.33;;;38.55;;
56997;SDS011;42890;44.244;22.530;2024-01-15T00:08:32;24.00;;;20.58;;
56997;SDS011;42890;44.244;22.530;2024-01-15T00:10:58;19.08;;;17.08;;
56997;SDS011;42890;44.244;22.530;2024-01-15T00:13:24;19.17;;;17.25;;
56997;SDS011;42890;44.244;22.530;2024-01-15T00:15:54;22.20;;;19.88;;
56997;SDS011;42890;44.244;22.530;2024-01-15T00:18:20;20.48;;;18.33;;
56997;SDS011;42890;44.244;22.530;2024-01-15T00:20:49;23.90;;;20.95;;
56997;SDS011;42890;44.244;22.530;2024-01-15T00:23:15;22.55;;;19.90;;
56997;SDS011;42890;44.244;22.530;2024-01-15T00:25:41;22.25;;;19.58;;
56997;SDS011;42890;44.244;22.530;2024-01-15T00:28:08;23.10;;;20.80;;
56997;SDS011;42890;44.244;22.530;2024-01-15T00:30:34;27.58;;;23.30;;
56997;SDS011;42890;44.244;22.530;2024-01-15T00:33:03;48.35;;;34.22;;
56997;SDS011;42890;44.244;22.530;2024-01-15T00:35:29;51.03;;;37.05;;
56997;SDS011;42890;44.244;22.530;2024-01-15T00:37:56;32.13;;;25.70;;
56997;SDS011;42890;44.244;22.530;2024-01-15T00:42:58;16.50;;;14.85;;
56997;SDS011;42890;44.244;22.530;2024-01-15T00:45:27;21.27;;;17.65;;
56997;SDS011;42890;44.244;22.530;2024-01-15T00:47:53;18.27;;;16.58;;
56997;SDS011;42890;44.244;22.530;2024-01-15T00:50:21;18.90;;;17.00;;
56997;SDS011;42890;44.244;22.530;2024-01-15T00:52:47;17.90;;;16.05;;
56997;SDS011;42890;44.244;22.530;2024-01-15T00:55:13;18.38;;;15.63;;
56997;SDS011;42890;44.244;22.530;2024-01-15T00:57:40;16.05;;;14.40;;
56997;SDS011;42890;44.244;22.530;2024-01-15T01:00:09;29.33;;;23.50;;
56997;SDS011;42890;44.244;22.530;2024-01-15T01:02:35;18.05;;;15.32;;
56997;SDS011;42890;44.244;22.530;2024-01-15T01:05:02;17.00;;;15.27;;
56997;SDS011;42890;44.244;22.530;2024-01-15T01:07:31;16.65;;;14.90;;
56997;SDS011;42890;44.244;22.530;2024-01-15T01:09:57;15.85;;;14.40;;
56997;SDS011;42890;44.244;22.530;2024-01-15T01:12:23;25.67;;;23.10;;
56997;SDS011;42890;44.244;22.530;2024-01-15T01:14:53;30.08;;;26.58;;
56997;SDS011;42890;44.244;22.530;2024-01-15T01:17:22;25.17;;;22.10;;
56997;SDS011;42890;44.244;22.530;2024-01-15T01:19:49;34.95;;;26.80;;
56997;SDS011;42890;44.244;22.530;2024-01-15T01:22:17;43.08;;;29.02;;
56997;SDS011;42890;44.244;22.530;2024-01-15T01:24:43;29.42;;;23.00;;
56997;SDS011;42890;44.244;22.530;2024-01-15T01:27:09;212.23;;;89.40;;
56997;SDS011;42890;44.244;22.530;2024-01-15T01:29:36;84.25;;;53.35;;
56997;SDS011;42890;44.244;22.530;2024-01-15T01:32:02;48.28;;;35.00;;
56997;SDS011;42890;44.244;22.530;2024-01-15T01:34:28;24.92;;;17.95;;
56997;SDS011;42890;44.244;22.530;2024-01-15T01:36:55;30.00;;;23.90;;
56997;SDS011;42890;44.244;22.530;2024-01-15T01:39:27;40.40;;;30.00;;
56997;SDS011;42890;44.244;22.530;2024-01-15T01:41:53;15.88;;;14.23;;
56997;SDS011;42890;44.244;22.530;2024-01-15T01:44:19;14.85;;;13.45;;
56997;SDS011;42890;44.244;22.530;2024-01-15T01:46:45;24.17;;;21.65;;
56997;SDS011;42890;44.244;22.530;2024-01-15T01:49:12;22.33;;;19.85;;
56997;SDS011;42890;44.244;22.530;2024-01-15T01:51:38;26.17;;;22.35;;
56997;SDS011;42890;44.244;22.530;2024-01-15T01:54:04;71.20;;;51.45;;
56997;SDS011;42890;44.244;22.530;2024-01-15T01:56:31;73.70;;;50.75;;
56997;SDS011;42890;44.244;22.530;2024-01-15T01:58:58;66.28;;;49.60;;
56997;SDS011;42890;44.244;22.530;2024-01-15T02:01:24;81.97;;;56.72;;
56997;SDS011;42890;44.244;22.530;2024-01-15T02:03:50;176.65;;;96.72;;
56997;SDS011;42890;44.244;22.530;2024-01-15T02:06:16;94.03;;;63.25;;
56997;SDS011;42890;44.244;22.530;2024-01-15T02:08:43;36.92;;;31.13;;
56997;SDS011;42890;44.244;22.530;2024-01-15T02:11:09;36.72;;;32.38;;
56997;SDS011;42890;44.244;22.530;2024-01-15T02:13:36;77.40;;;50.55;;
56997;SDS011;42890;44.244;22.530;2024-01-15T02:16:02;23.52;;;20.85;;
56997;SDS011;42890;44.244;22.530;2024-01-15T02:18:40;20.27;;;18.23;;
56997;SDS011;42890;44.244;22.530;2024-01-15T02:21:07;22.95;;;20.55;;
56997;SDS011;42890;44.244;22.530;2024-01-15T02:23:33;23.13;;;20.10;;
56997;SDS011;42890;44.244;22.530;2024-01-15T02:25:59;23.13;;;19.98;;
56997;SDS011;42890;44.244;22.530;2024-01-15T02:28:25;29.30;;;26.38;;
56997;SDS011;42890;44.244;22.530;2024-01-15T02:30:51;28.65;;;25.65;;
56997;SDS011;42890;44.244;22.530;2024-01-15T02:33:17;23.13;;;20.70;;
56997;SDS011;42890;44.244;22.530;2024-01-15T02:35:43;25.55;;;22.95;;
56997;SDS011;42890;44.244;22.530;2024-01-15T02:38:11;24.50;;;22.10;;
56997;SDS011;42890;44.244;22.530;2024-01-15T02:40:38;68.18;;;59.28;;
56997;SDS011;42890;44.244;22.530;2024-01-15T02:43:04;214.02;;;138.50;;
56997;SDS011;42890;44.244;22.530;2024-01-15T02:45:30;222.25;;;146.95;;
56997;SDS011;42890;44.244;22.530;2024-01-15T02:47:58;272.38;;;170.05;;
56997;SDS011;42890;44.244;22.530;2024-01-15T02:50:24;388.58;;;217.55;;
56997;SDS011;42890;44.244;22.530;2024-01-15T02:52:50;229.70;;;129.70;;
56997;SDS011;42890;44.244;22.530;2024-01-15T02:55:16;195.93;;;124.68;;
56997;SDS011;42890;44.244;22.530;2024-01-15T02:57:45;145.15;;;95.95;;
56997;SDS011;42890;44.244;22.530;2024-01-15T03:00:11;36.70;;;32.85;;
56997;SDS011;42890;44.244;22.530;2024-01-15T03:02:38;28.13;;;25.25;;
56997;SDS011;42890;44.244;22.530;2024-01-15T03:05:05;32.40;;;29.05;;
56997;SDS011;42890;44.244;22.530;2024-01-15T03:07:32;39.20;;;33.00;;
56997;SDS011;42890;44.244;22.530;2024-01-15T03:10:01;34.38;;;30.05;;
56997;SDS011;42890;44.244;22.530;2024-01-15T03:12:28;31.60;;;28.20;;
56997;SDS011;42890;44.244;22.530;2024-01-15T03:14:54;32.55;;;29.20;;
56997;SDS011;42890;44.244;22.530;2024-01-15T03:17:22;49.20;;;43.90;;
56997;SDS011;42890;44.244;22.530;2024-01-15T03:19:49;83.45;;;67.88;;
56997;SDS011;42890;44.244;22.530;2024-01-15T03:22:15;93.95;;;75.75;;
56997;SDS011;42890;44.244;22.530;2024-01-15T03:24:41;72.53;;;63.25;;
56997;SDS011;42890;44.244;22.530;2024-01-15T03:27:10;60.60;;;54.10;;
56997;SDS011;42890;44.244;22.530;2024-01-15T03:29:37;52.63;;;47.08;;
56997;SDS011;42890;44.244;22.530;2024-01-15T03:32:03;46.95;;;42.08;;
56997;SDS011;42890;44.244;22.530;2024-01-15T03:34:29;72.20;;;64.38;;
56997;SDS011;42890;44.244;22.530;2024-01-15T03:36:55;48.22;;;39.75;;
56997;SDS011;42890;44.244;22.530;2024-01-15T03:39:21;42.83;;;38.08;;
56997;SDS011;42890;44.244;22.530;2024-01-15T03:41:48;52.92;;;46.15;;
56997;SDS011;42890;44.244;22.530;2024-01-15T03:44:14;31.33;;;27.95;;
56997;SDS011;42890;44.244;22.530;2024-01-15T03:46:40;23.30;;;20.92;;
56997;SDS011;42890;44.244;22.530;2024-01-15T03:49:06;22.15;;;19.95;;
56997;SDS011;42890;44.244;22.530;2024-01-15T03:51:33;24.70;;;21.30;;
56997;SDS011;42890;44.244;22.530;2024-01-15T03:53:59;22.80;;;20.60;;
56997;SDS011;42890;44.244;22.530;2024-01-15T03:56:25;20.88;;;18.88;;
56997;SDS011;42890;44.244;22.530;2024-01-15T03:58:51;22.90;;;20.55;;
56997;SDS011;42890;44.244;22.530;2024-01-15T04:01:17;210.93;;;108.50;;
56997;SDS011;42890;44.244;22.530;2024-01-15T04:03:43;67.50;;;56.95;;
56997;SDS011;42890;44.244;22.530;2024-01-15T04:06:10;68.38;;;61.15;;
56997;SDS011;42890;44.244;22.530;2024-01-15T04:08:36;70.10;;;62.70;;
56997;SDS011;42890;44.244;22.530;2024-01-15T04:11:02;166.02;;;117.25;;
56997;SDS011;42890;44.244;22.530;2024-01-15T04:13:31;250.13;;;157.93;;
56997;SDS011;42890;44.244;22.530;2024-01-15T04:15:57;151.48;;;95.60;;
56997;SDS011;42890;44.244;22.530;2024-01-15T04:18:24;111.68;;;78.53;;
56997;SDS011;42890;44.244;22.530;2024-01-15T04:20:50;140.10;;;90.22;;
56997;SDS011;42890;44.244;22.530;2024-01-15T04:23:16;131.85;;;86.50;;
56997;SDS011;42890;44.244;22.530;2024-01-15T04:25:42;137.63;;;88.40;;
56997;SDS011;42890;44.244;22.530;2024-01-15T04:28:09;51.38;;;45.88;;
56997;SDS011;42890;44.244;22.530;2024-01-15T04:30:35;34.13;;;29.65;;
56997;SDS011;42890;44.244;22.530;2024-01-15T04:33:01;20.63;;;18.73;;
56997;SDS011;42890;44.244;22.530;2024-01-15T04:35:27;22.05;;;19.75;;
56997;SDS011;42890;44.244;22.530;2024-01-15T04:37:54;19.95;;;18.10;;
56997;SDS011;42890;44.244;22.530;2024-01-15T04:40:20;18.42;;;16.48;;
56997;SDS011;42890;44.244;22.530;2024-01-15T04:42:46;19.75;;;17.75;;
56997;SDS011;42890;44.244;22.530;2024-01-15T04:45:15;20.65;;;18.58;;
56997;SDS011;42890;44.244;22.530;2024-01-15T04:47:43;24.27;;;19.60;;
56997;SDS011;42890;44.244;22.530;2024-01-15T04:50:09;59.50;;;46.85;;
56997;SDS011;42890;44.244;22.530;2024-01-15T04:52:35;16.65;;;15.00;;
56997;SDS011;42890;44.244;22.530;2024-01-15T04:55:01;14.55;;;13.15;;
56997;SDS011;42890;44.244;22.530;2024-01-15T04:57:28;17.65;;;15.38;;
56997;SDS011;42890;44.244;22.530;2024-01-15T04:59:54;58.28;;;48.53;;
56997;SDS011;42890;44.244;22.530;2024-01-15T05:02:20;36.63;;;31.60;;
56997;SDS011;42890;44.244;22.530;2024-01-15T05:04:46;76.97;;;56.70;;
56997;SDS011;42890;44.244;22.530;2024-01-15T05:07:12;20.65;;;18.63;;
56997;SDS011;42890;44.244;22.530;2024-01-15T05:09:41;20.60;;;18.50;;
56997;SDS011;42890;44.244;22.530;2024-01-15T05:12:07;356.35;;;192.98;;
56997;SDS011;42890;44.244;22.530;2024-01-15T05:14:40;407.70;;;241.15;;
56997;SDS011;42890;44.244;22.530;2024-01-15T05:17:06;188.20;;;103.53;;
56997;SDS011;42890;44.244;22.530;2024-01-15T05:19:35;151.50;;;92.57;;
56997;SDS011;42890;44.244;22.530;2024-01-15T05:22:04;161.50;;;94.30;;
56997;SDS011;42890;44.244;22.530;2024-01-15T05:24:30;157.82;;;96.55;;
56997;SDS011;42890;44.244;22.530;2024-01-15T05:26:56;158.55;;;99.50;;
56997;SDS011;42890;44.244;22.530;2024-01-15T05:29:22;161.52;;;102.18;;
56997;SDS011;42890;44.244;22.530;2024-01-15T05:31:48;164.98;;;99.88;;
56997;SDS011;42890;44.244;22.530;2024-01-15T05:34:15;139.60;;;89.15;;
56997;SDS011;42890;44.244;22.530;2024-01-15T05:36:41;112.45;;;82.53;;
56997;SDS011;42890;44.244;22.530;2024-01-15T05:39:07;76.40;;;68.07;;
56997;SDS011;42890;44.244;22.530;2024-01-15T05:41:33;70.85;;;58.13;;
56997;SDS011;42890;44.244;22.530;2024-01-15T05:43:59;56.08;;;50.10;;
56997;SDS011;42890;44.244;22.530;2024-01-15T05:46:26;56.40;;;50.80;;
56997;SDS011;42890;44.244;22.530;2024-01-15T05:48:52;56.10;;;49.50;;
56997;SDS011;42890;44.244;22.530;2024-01-15T05:51:18;57.38;;;51.47;;
56997;SDS011;42890;44.244;22.530;2024-01-15T05:53:44;73.55;;;65.75;;
56997;SDS011;42890;44.244;22.530;2024-01-15T05:56:10;435.83;;;296.35;;
56997;SDS011;42890;44.244;22.530;2024-01-15T05:58:37;424.73;;;273.77;;
56997;SDS011;42890;44.244;22.530;2024-01-15T06:01:03;297.08;;;181.50;;
56997;SDS011;42890;44.244;22.530;2024-01-15T06:03:29;235.45;;;145.70;;
56997;SDS011;42890;44.244;22.530;2024-01-15T06:05:57;229.40;;;142.73;;
56997;SDS011;42890;44.244;22.530;2024-01-15T06:08:30;263.88;;;170.95;;
56997;SDS011;42890;44.244;22.530;2024-01-15T06:10:56;252.73;;;156.80;;
56997;SDS011;42890;44.244;22.530;2024-01-15T06:13:23;224.25;;;137.88;;
56997;SDS011;42890;44.244;22.530;2024-01-15T06:15:49;379.70;;;227.38;;
56997;SDS011;42890;44.244;22.530;2024-01-15T06:18:18;277.45;;;168.00;;
56997;SDS011;42890;44.244;22.530;2024-01-15T06:20:44;448.75;;;322.92;;
56997;SDS011;42890;44.244;22.530;2024-01-15T06:23:10;277.95;;;182.02;;
56997;SDS011;42890;44.244;22.530;2024-01-15T06:25:36;267.55;;;181.43;;
56997;SDS011;42890;44.244;22.530;2024-01-15T06:28:03;218.07;;;146.35;;
56997;SDS011;42890;44.244;22.530;2024-01-15T06:30:30;197.27;;;130.43;;
56997;SDS011;42890;44.244;22.530;2024-01-15T06:32:56;225.88;;;146.27;;
56997;SDS011;42890;44.244;22.530;2024-01-15T06:35:22;290.80;;;195.65;;
56997;SDS011;42890;44.244;22.530;2024-01-15T06:37:49;302.90;;;211.85;;
56997;SDS011;42890;44.244;22.530;2024-01-15T06:40:15;322.85;;;223.10;;
56997;SDS011;42890;44.244;22.530;2024-01-15T06:42:41;374.75;;;263.90;;
56997;SDS011;42890;44.244;22.530;2024-01-15T06:45:07;404.67;;;276.98;;
56997;SDS011;42890;44.244;22.530;2024-01-15T06:47:33;304.42;;;205.30;;
56997;SDS011;42890;44.244;22.530;2024-01-15T06:50:00;251.40;;;169.68;;
56997;SDS011;42890;44.244;22.530;2024-01-15T06:52:26;224.88;;;146.05;;
56997;SDS011;42890;44.244;22.530;2024-01-15T06:54:52;236.43;;;163.95;;
56997;SDS011;42890;44.244;22.530;2024-01-15T06:57:18;259.55;;;177.30;;
56997;SDS011;42890;44.244;22.530;2024-01-15T06:59:48;287.45;;;201.50;;
56997;SDS011;42890;44.244;22.530;2024-01-15T07:02:15;347.25;;;236.20;;
56997;SDS011;42890;44.244;22.530;2024-01-15T07:04:41;302.85;;;204.57;;
56997;SDS011;42890;44.244;22.530;2024-01-15T07:07:07;319.08;;;214.57;;
56997;SDS011;42890;44.244;22.530;2024-01-15T07:09:33;378.05;;;260.45;;
56997;SDS011;42890;44.244;22.530;2024-01-15T07:11:59;322.58;;;219.80;;
56997;SDS011;42890;44.244;22.530;2024-01-15T07:14:25;293.83;;;195.45;;
56997;SDS011;42890;44.244;22.530;2024-01-15T07:16:51;293.08;;;199.98;;
56997;SDS011;42890;44.244;22.530;2024-01-15T07:19:20;236.68;;;138.40;;
56997;SDS011;42890;44.244;22.530;2024-01-15T07:21:46;223.63;;;122.13;;
56997;SDS011;42890;44.244;22.530;2024-01-15T07:24:12;104.22;;;77.78;;
56997;SDS011;42890;44.244;22.530;2024-01-15T07:26:38;61.92;;;55.50;;
56997;SDS011;42890;44.244;22.530;2024-01-15T07:29:05;72.40;;;64.95;;
56997;SDS011;42890;44.244;22.530;2024-01-15T07:31:31;83.65;;;66.88;;
56997;SDS011;42890;44.244;22.530;2024-01-15T07:33:57;99.88;;;75.78;;
56997;SDS011;42890;44.244;22.530;2024-01-15T07:36:25;69.68;;;62.17;;
56997;SDS011;42890;44.244;22.530;2024-01-15T07:38:51;71.45;;;64.05;;
56997;SDS011;42890;44.244;22.530;2024-01-15T07:41:17;79.70;;;70.90;;
56997;SDS011;42890;44.244;22.530;2024-01-15T07:43:43;97.30;;;77.32;;
56997;SDS011;42890;44.244;22.530;2024-01-15T07:46:09;127.30;;;91.35;;
56997;SDS011;42890;44.244;22.530;2024-01-15T07:48:35;188.77;;;123.45;;
56997;SDS011;42890;44.244;22.530;2024-01-15T07:51:02;196.35;;;131.75;;
56997;SDS011;42890;44.244;22.530;2024-01-15T07:53:29;209.48;;;127.53;;
56997;SDS011;42890;44.244;22.530;2024-01-15T07:55:55;207.63;;;126.30;;
56997;SDS011;42890;44.244;22.530;2024-01-15T07:58:21;201.80;;;122.10;;
56997;SDS011;42890;44.244;22.530;2024-01-15T08:00:47;262.05;;;172.18;;
56997;SDS011;42890;44.244;22.530;2024-01-15T08:03:13;243.02;;;156.02;;
56997;SDS011;42890;44.244;22.530;2024-01-15T08:05:40;277.35;;;183.07;;
56997;SDS011;42890;44.244;22.530;2024-01-15T08:08:06;267.90;;;169.57;;
56997;SDS011;42890;44.244;22.530;2024-01-15T08:10:32;280.10;;;178.57;;
56997;SDS011;42890;44.244;22.530;2024-01-15T08:12:58;252.90;;;171.25;;
56997;SDS011;42890;44.244;22.530;2024-01-15T08:15:24;249.60;;;170.43;;
56997;SDS011;42890;44.244;22.530;2024-01-15T08:17:50;249.50;;;176.60;;
56997;SDS011;42890;44.244;22.530;2024-01-15T08:20:16;446.95;;;296.08;;
56997;SDS011;42890;44.244;22.530;2024-01-15T08:22:43;324.92;;;193.13;;
56997;SDS011;42890;44.244;22.530;2024-01-15T08:25:09;482.35;;;282.50;;
56997;SDS011;42890;44.244;22.530;2024-01-15T08:27:36;480.33;;;287.83;;
56997;SDS011;42890;44.244;22.530;2024-01-15T08:30:02;353.17;;;201.63;;
56997;SDS011;42890;44.244;22.530;2024-01-15T08:32:29;395.50;;;213.88;;
56997;SDS011;42890;44.244;22.530;2024-01-15T08:34:55;267.48;;;181.10;;
56997;SDS011;42890;44.244;22.530;2024-01-15T08:37:21;175.73;;;109.80;;
56997;SDS011;42890;44.244;22.530;2024-01-15T08:39:47;152.27;;;106.40;;
56997;SDS011;42890;44.244;22.530;2024-01-15T08:42:13;160.93;;;106.45;;
56997;SDS011;42890;44.244;22.530;2024-01-15T08:44:40;161.48;;;110.15;;
56997;SDS011;42890;44.244;22.530;2024-01-15T08:47:08;161.57;;;112.93;;
56997;SDS011;42890;44.244;22.530;2024-01-15T08:49:34;168.25;;;116.18;;
56997;SDS011;42890;44.244;22.530;2024-01-15T08:52:01;512.83;;;347.85;;
56997;SDS011;42890;44.244;22.530;2024-01-15T08:54:27;462.40;;;300.98;;
56997;SDS011;42890;44.244;22.530;2024-01-15T08:56:53;242.13;;;149.38;;
56997;SDS011;42890;44.244;22.530;2024-01-15T08:59:19;205.13;;;128.55;;
56997;SDS011;42890;44.244;22.530;2024-01-15T09:01:50;180.40;;;120.07;;
56997;SDS011;42890;44.244;22.530;2024-01-15T09:04:16;168.95;;;114.70;;
56997;SDS011;42890;44.244;22.530;2024-01-15T09:06:44;227.40;;;141.57;;
56997;SDS011;42890;44.244;22.530;2024-01-15T09:09:12;187.68;;;122.70;;
56997;SDS011;42890;44.244;22.530;2024-01-15T09:11:40;199.70;;;129.95;;
56997;SDS011;42890;44.244;22.530;2024-01-15T09:14:06;184.48;;;120.68;;
56997;SDS011;42890;44.244;22.530;2024-01-15T09:16:33;170.80;;;117.78;;
56997;SDS011;42890;44.244;22.530;2024-01-15T09:18:59;161.18;;;106.40;;
56997;SDS011;42890;44.244;22.530;2024-01-15T09:21:25;155.77;;;109.53;;
56997;SDS011;42890;44.244;22.530;2024-01-15T09:23:52;180.10;;;116.90;;
56997;SDS011;42890;44.244;22.530;2024-01-15T09:26:18;164.60;;;115.03;;
56997;SDS011;42890;44.244;22.530;2024-01-15T09:28:44;113.93;;;85.35;;
56997;SDS011;42890;44.244;22.530;2024-01-15T09:31:10;104.97;;;80.60;;
56997;SDS011;42890;44.244;22.530;2024-01-15T09:33:36;388.58;;;186.38;;
56997;SDS011;42890;44.244;22.530;2024-01-15T09:36:03;154.18;;;92.20;;
56997;SDS011;42890;44.244;22.530;2024-01-15T09:38:29;109.72;;;79.35;;
56997;SDS011;42890;44.244;22.530;2024-01-15T09:40:56;103.22;;;79.93;;
56997;SDS011;42890;44.244;22.530;2024-01-15T09:43:23;136.48;;;94.20;;
56997;SDS011;42890;44.244;22.530;2024-01-15T09:45:49;173.30;;;109.03;;
56997;SDS011;42890;44.244;22.530;2024-01-15T09:48:16;195.43;;;120.25;;
56997;SDS011;42890;44.244;22.530;2024-01-15T09:50:43;169.32;;;104.32;;
56997;SDS011;42890;44.244;22.530;2024-01-15T09:53:09;144.93;;;94.75;;
56997;SDS011;42890;44.244;22.530;2024-01-15T09:55:36;94.57;;;71.25;;
56997;SDS011;42890;44.244;22.530;2024-01-15T09:58:06;62.70;;;53.88;;
56997;SDS011;42890;44.244;22.530;2024-01-15T10:00:33;49.72;;;44.50;;
56997;SDS011;42890;44.244;22.530;2024-01-15T10:03:04;41.60;;;36.90;;
56997;SDS011;42890;44.244;22.530;2024-01-15T10:05:31;38.95;;;34.85;;
56997;SDS011;42890;44.244;22.530;2024-01-15T10:07:57;39.33;;;35.03;;
56997;SDS011;42890;44.244;22.530;2024-01-15T10:10:26;37.25;;;33.22;;
56997;SDS011;42890;44.244;22.530;2024-01-15T10:12:53;36.17;;;32.30;;
56997;SDS011;42890;44.244;22.530;2024-01-15T10:15:23;65.30;;;50.00;;
56997;SDS011;42890;44.244;22.530;2024-01-15T10:17:51;35.33;;;31.33;;
56997;SDS011;42890;44.244;22.530;2024-01-15T10:20:17;29.70;;;26.60;;
56997;SDS011;42890;44.244;22.530;2024-01-15T10:22:44;34.35;;;27.52;;
56997;SDS011;42890;44.244;22.530;2024-01-15T10:25:14;37.67;;;31.48;;
56997;SDS011;42890;44.244;22.530;2024-01-15T10:27:41;31.85;;;28.48;;
56997;SDS011;42890;44.244;22.530;2024-01-15T10:30:10;31.80;;;25.92;;
56997;SDS011;42890;44.244;22.530;2024-01-15T10:32:39;28.15;;;23.15;;
56997;SDS011;42890;44.244;22.530;2024-01-15T10:35:06;32.90;;;21.02;;
56997;SDS011;42890;44.244;22.530;2024-01-15T10:37:33;20.95;;;18.70;;
56997;SDS011;42890;44.244;22.530;2024-01-15T10:40:03;23.92;;;19.63;;
56997;SDS011;42890;44.244;22.530;2024-01-15T10:42:32;27.88;;;23.35;;
56997;SDS011;42890;44.244;22.530;2024-01-15T10:45:01;22.50;;;20.17;;
56997;SDS011;42890;44.244;22.530;2024-01-15T10:47:36;23.17;;;20.80;;
56997;SDS011;42890;44.244;22.530;2024-01-15T10:50:02;28.48;;;23.90;;
56997;SDS011;42890;44.244;22.530;2024-01-15T10:52:29;26.52;;;23.38;;
56997;SDS011;42890;44.244;22.530;2024-01-15T10:54:55;25.38;;;22.77;;
56997;SDS011;42890;44.244;22.530;2024-01-15T10:57:24;26.65;;;23.10;;
56997;SDS011;42890;44.244;22.530;2024-01-15T10:59:52;28.70;;;22.77;;
56997;SDS011;42890;44.244;22.530;2024-01-15T11:02:21;36.35;;;27.80;;
56997;SDS011;42890;44.244;22.530;2024-01-15T11:04:47;52.30;;;34.25;;
56997;SDS011;42890;44.244;22.530;2024-01-15T11:07:13;116.03;;;59.75;;
56997;SDS011;42890;44.244;22.530;2024-01-15T11:09:39;135.25;;;70.40;;
56997;SDS011;42890;44.244;22.530;2024-01-15T11:12:06;270.38;;;133.63;;
56997;SDS011;42890;44.244;22.530;2024-01-15T11:14:44;182.95;;;91.70;;
56997;SDS011;42890;44.244;22.530;2024-01-15T11:17:11;40.75;;;33.33;;
56997;SDS011;42890;44.244;22.530;2024-01-15T11:22:49;30.85;;;27.15;;
56997;SDS011;42890;44.244;22.530;2024-01-15T11:25:18;29.73;;;26.52;;
56997;SDS011;42890;44.244;22.530;2024-01-15T11:27:44;28.90;;;25.88;;
56997;SDS011;42890;44.244;22.530;2024-01-15T11:30:12;98.50;;;61.75;;
56997;SDS011;42890;44.244;22.530;2024-01-15T11:32:39;168.98;;;89.38;;
56997;SDS011;42890;44.244;22.530;2024-01-15T11:35:11;127.03;;;74.65;;
56997;SDS011;42890;44.244;22.530;2024-01-15T11:42:58;60.85;;;47.17;;
56997;SDS011;42890;44.244;22.530;2024-01-15T11:45:24;110.10;;;61.30;;
56997;SDS011;42890;44.244;22.530;2024-01-15T11:48:09;113.65;;;61.25;;
56997;SDS011;42890;44.244;22.530;2024-01-15T11:50:46;49.40;;;36.88;;
56997;SDS011;42890;44.244;22.530;2024-01-15T11:53:18;49.42;;;34.90;;
56997;SDS011;42890;44.244;22.530;2024-01-15T11:58:14;32.10;;;28.10;;
56997;SDS011;42890;44.244;22.530;2024-01-15T12:00:42;28.17;;;23.55;;
56997;SDS011;42890;44.244;22.530;2024-01-15T12:03:09;27.45;;;22.30;;
56997;SDS011;42890;44.244;22.530;2024-01-15T12:05:36;26.73;;;22.83;;
56997;SDS011;42890;44.244;22.530;2024-01-15T12:08:03;30.15;;;25.42;;
56997;SDS011;42890;44.244;22.530;2024-01-15T12:10:35;30.33;;;24.90;;
56997;SDS011;42890;44.244;22.530;2024-01-15T12:13:07;40.95;;;27.20;;
56997;SDS011;42890;44.244;22.530;2024-01-15T12:15:42;36.25;;;24.77;;
56997;SDS011;42890;44.244;22.530;2024-01-15T12:18:09;33.88;;;26.52;;
56997;SDS011;42890;44.244;22.530;2024-01-15T12:20:36;27.48;;;23.38;;
56997;SDS011;42890;44.244;22.530;2024-01-15T12:23:02;26.63;;;23.58;;
56997;SDS011;42890;44.244;22.530;2024-01-15T12:25:29;32.78;;;24.65;;
56997;SDS011;42890;44.244;22.530;2024-01-15T12:27:56;42.47;;;30.85;;
56997;SDS011;42890;44.244;22.530;2024-01-15T12:30:22;37.38;;;30.45;;
56997;SDS011;42890;44.244;22.530;2024-01-15T12:32:48;28.35;;;22.67;;
56997;SDS011;42890;44.244;22.530;2024-01-15T12:35:14;22.05;;;17.98;;
56997;SDS011;42890;44.244;22.530;2024-01-15T12:37:41;24.13;;;19.70;;
56997;SDS011;42890;44.244;22.530;2024-01-15T12:40:08;19.52;;;17.50;;
56997;SDS011;42890;44.244;22.530;2024-01-15T12:42:37;20.65;;;18.13;;
56997;SDS011;42890;44.244;22.530;2024-01-15T12:45:05;20.33;;;18.13;;
56997;SDS011;42890;44.244;22.530;2024-01-15T12:47:32;23.15;;;19.42;;
56997;SDS011;42890;44.244;22.530;2024-01-15T12:49:58;27.20;;;20.42;;
56997;SDS011;42890;44.244;22.530;2024-01-15T12:52:28;24.38;;;21.80;;
56997;SDS011;42890;44.244;22.530;2024-01-15T12:54:54;22.63;;;20.30;;
56997;SDS011;42890;44.244;22.530;2024-01-15T12:57:21;23.92;;;20.70;;
56997;SDS011;42890;44.244;22.530;2024-01-15T12:59:48;25.40;;;20.30;;
56997;SDS011;42890;44.244;22.530;2024-01-15T13:02:15;22.90;;;20.50;;
56997;SDS011;42890;44.244;22.530;2024-01-15T13:04:41;25.92;;;21.67;;
56997;SDS011;42890;44.244;22.530;2024-01-15T13:07:07;23.65;;;21.15;;
56997;SDS011;42890;44.244;22.530;2024-01-15T13:09:34;25.20;;;22.58;;
56997;SDS011;42890;44.244;22.530;2024-01-15T13:12:01;28.90;;;22.92;;
56997;SDS011;42890;44.244;22.530;2024-01-15T13:14:28;24.70;;;22.20;;
56997;SDS011;42890;44.244;22.530;2024-01-15T13:16:54;27.90;;;22.27;;
56997;SDS011;42890;44.244;22.530;2024-01-15T13:19:21;26.38;;;23.48;;
56997;SDS011;42890;44.244;22.530;2024-01-15T13:21:47;26.25;;;23.13;;
56997;SDS011;42890;44.244;22.530;2024-01-15T13:24:13;27.67;;;24.73;;
56997;SDS011;42890;44.244;22.530;2024-01-15T13:26:40;33.28;;;28.63;;
56997;SDS011;42890;44.244;22.530;2024-01-15T13:29:06;32.83;;;29.30;;
56997;SDS011;42890;44.244;22.530;2024-01-15T13:31:32;26.77;;;23.88;;
56997;SDS011;42890;44.244;22.530;2024-01-15T13:33:59;27.05;;;24.38;;
56997;SDS011;42890;44.244;22.530;2024-01-15T13:36:26;26.38;;;23.70;;
56997;SDS011;42890;44.244;22.530;2024-01-15T13:38:55;27.05;;;24.38;;
56997;SDS011;42890;44.244;22.530;2024-01-15T13:41:21;34.53;;;30.75;;
56997;SDS011;42890;44.244;22.530;2024-01-15T13:43:52;56.80;;;50.60;;
56997;SDS011;42890;44.244;22.530;2024-01-15T13:46:18;69.03;;;61.17;;
56997;SDS011;42890;44.244;22.530;2024-01-15T13:48:45;69.45;;;61.92;;
56997;SDS011;42890;44.244;22.530;2024-01-15T13:51:11;81.05;;;63.33;;
56997;SDS011;42890;44.244;22.530;2024-01-15T13:53:40;111.03;;;69.43;;
56997;SDS011;42890;44.244;22.530;2024-01-15T13:56:12;81.32;;;62.47;;
56997;SDS011;42890;44.244;22.530;2024-01-15T13:58:38;65.28;;;57.95;;
56997;SDS011;42890;44.244;22.530;2024-01-15T14:01:04;58.08;;;51.50;;
56997;SDS011;42890;44.244;22.530;2024-01-15T14:03:33;122.70;;;66.53;;
56997;SDS011;42890;44.244;22.530;2024-01-15T14:06:00;62.85;;;51.53;;
56997;SDS011;42890;44.244;22.530;2024-01-15T14:08:28;47.90;;;42.78;;
56997;SDS011;42890;44.244;22.530;2024-01-15T14:10:54;48.78;;;41.17;;
56997;SDS011;42890;44.244;22.530;2024-01-15T14:13:22;59.42;;;47.97;;